This is the latest recevied weather packets stored in our database for station/object KE5KUL-13. If no packets are shown the sender has not sent any weather packets the latest 10 day(s).
| Time | Temp. | Humidity | Pressure | Rain* | Wind** | Luminosity | Snow |
|---|---|---|---|---|---|---|---|
| 1777450817 | 10.56° C | 63% | 1020.8 hPa | 0 mm | - | - | - |
| 1777450217 | 10.56° C | 62% | 1021.1 hPa | 0 mm | - | - | - |
| 1777449618 | 10.56° C | 61% | 1021.2 hPa | 0 mm | - | - | - |
| 1777448417 | 11.11° C | 59% | 1021.2 hPa | 0 mm | - | - | - |
| 1777447817 | 11.11° C | 57% | 1021.3 hPa | 0 mm | - | - | - |
| 1777447217 | 11.11° C | 57% | 1020.9 hPa | 0 mm | - | - | - |
| 1777446617 | 11.11° C | 56% | 1020.8 hPa | 0 mm | - | - | - |
| 1777446017 | 11.67° C | 56% | 1020.9 hPa | 0 mm | - | - | - |
| 1777445417 | 11.67° C | 56% | 1020.4 hPa | 0 mm | - | - | - |
| 1777444817 | 11.67° C | 55% | 1020.4 hPa | 0 mm | - | - | - |
| 1777444217 | 11.67° C | 54% | 1020.3 hPa | 0 mm | - | - | - |
| 1777443617 | 12.22° C | 54% | 1020.2 hPa | 0 mm | - | - | - |
| 1777443017 | 12.22° C | 53% | 1019.8 hPa | 0 mm | - | - | - |
| 1777442417 | 12.78° C | 52% | 1020 hPa | 0 mm | - | - | - |
| 1777441817 | 12.78° C | 53% | 1019.7 hPa | 0 mm | - | - | - |
| 1777441217 | 12.78° C | 52% | 1019.4 hPa | 0 mm | - | - | - |
| 1777440617 | 13.33° C | 51% | 1019.2 hPa | 0 mm | - | - | - |
| 1777440017 | 13.33° C | 50% | 1018.8 hPa | 0 mm | - | - | - |
| 1777439417 | 13.89° C | 50% | 1018.7 hPa | 0 mm | - | - | - |
| 1777438817 | 13.89° C | 49% | 1018.8 hPa | 0 mm | - | - | - |
| 1777438218 | 13.89° C | 48% | 1018.6 hPa | 0 mm | - | - | - |
| 1777437618 | 13.89° C | 48% | 1018.2 hPa | 0 mm | - | - | - |
| 1777437018 | 14.44° C | 45% | 1018.3 hPa | 0 mm | - | - | - |
| 1777434618 | 15.56° C | 40% | 1017.9 hPa | 0 mm | - | - | - |
| 1777432218 | 16.67° C | 35% | 1016.6 hPa | 0 mm | - | - | - |
* Rain latest hour (hover to see other rain measurements)
** Current wind speed in m/s (hover to see current wind gust speed)